Time;durP1;ratioP1;P1;durP2;ratioP2;P2;SDS_P1;SDS_P2;PMS_P1;PMS_P2;Temp;Humidity;BMP_temperature;BMP_pressure;BME280_temperature;BME280_humidity;BME280_pressure;Samples;Min_cycle;Max_cycle;Signal;HPM_P1;HPM_P2
2023/09/29 06:33:32;;;;;;;;;4.00;4.00;;;;;;;;6178459;22;46700;31
2023/09/29 06:35:58;;;;;;;;;13.00;6.33;;;;;;;;6211749;22;45267;-71
2023/09/29 06:38:23;;;;;;;;;9.00;7.00;;;;;;;;6216188;22;45235;-70
2023/09/29 06:40:48;;;;;;;;;6.67;6.33;;;;;;;;6189727;22;47177;-71
2023/09/29 06:43:15;;;;;;;;;7.67;7.00;;;;;;;;6216422;22;45291;-71
2023/09/29 06:45:40;;;;;;;;;12.33;7.67;;;;;;;;6215559;22;45245;-71
2023/09/29 06:48:06;;;;;;;;;10.00;8.67;;;;;;;;6188780;22;45495;-72
2023/09/29 06:50:31;;;;;;;;;6.33;5.67;;;;;;;;6215700;22;45241;-72
2023/09/29 06:52:56;;;;;;;;;9.67;7.00;;;;;;;;6216670;22;45123;-72
2023/09/29 06:55:21;;;;;;;;;6.67;6.33;;;;;;;;6190246;22;45162;-70
2023/09/29 06:57:48;;;;;;;;;11.00;8.00;;;;;;;;6189378;22;45437;-71
2023/09/29 07:00:13;;;;;;;;;8.67;5.00;;;;;;;;6216939;22;45168;-72
2023/09/29 07:02:38;;;;;;;;;7.67;5.00;;;;;;;;6216771;22;45177;-72
2023/09/29 07:05:03;;;;;;;;;9.00;5.00;;;;;;;;6216017;22;45174;-72
2023/09/29 07:07:29;;;;;;;;;12.00;6.67;;;;;;;;6216726;22;45279;-73
2023/09/29 07:09:54;;;;;;;;;5.67;4.00;;;;;;;;6189249;22;46159;-73
2023/09/29 07:12:19;;;;;;;;;6.00;5.00;;;;;;;;6216896;22;45194;-72
2023/09/29 07:14:44;;;;;;;;;9.00;6.33;;;;;;;;6216488;22;45223;-72
2023/09/29 07:17:10;;;;;;;;;7.33;6.00;;;;;;;;6216788;22;45198;-72
2023/09/29 07:19:35;;;;;;;;;4.33;3.67;;;;;;;;6216248;22;46340;-72
2023/09/29 07:22:01;;;;;;;;;6.33;3.00;;;;;;;;6216921;22;44599;-72
2023/09/29 07:24:26;;;;;;;;;7.67;4.00;;;;;;;;6189187;22;45309;-72
2023/09/29 07:26:52;;;;;;;;;6.67;3.67;;;;;;;;6216766;22;45391;-72
2023/09/29 07:29:17;;;;;;;;;6.00;4.33;;;;;;;;6188412;22;48008;-72
2023/09/29 07:31:47;;;;;;;;;7.33;5.33;;;;;;;;6216816;22;45265;-72
2023/09/29 07:34:12;;;;;;;;;6.33;3.67;;;;;;;;6215564;22;45246;-72
2023/09/29 07:36:39;;;;;;;;;5.33;3.67;;;;;;;;6216614;22;45482;-72
2023/09/29 07:39:04;;;;;;;;;11.33;4.33;;;;;;;;6216070;22;45228;-72
2023/09/29 07:41:29;;;;;;;;;7.50;6.00;;;;;;;;6216758;22;44646;-72
2023/09/29 07:43:55;;;;;;;;;4.75;3.50;;;;;;;;6216533;22;45300;-72
2023/09/29 07:46:20;;;;;;;;;11.67;5.67;;;;;;;;6216834;22;45289;-72
2023/09/29 07:48:45;;;;;;;;;6.25;2.00;;;;;;;;6215833;22;45971;-72
2023/09/29 07:51:10;;;;;;;;;7.00;3.00;;;;;;;;6216712;22;45304;-72
2023/09/29 07:53:35;;;;;;;;;3.00;3.00;;;;;;;;6216606;22;45257;-71
2023/09/29 07:56:01;;;;;;;;;7.67;3.00;;;;;;;;6216842;22;45237;-72
2023/09/29 07:58:26;;;;;;;;;4.00;3.00;;;;;;;;6189077;22;47743;-72
2023/09/29 08:00:51;;;;;;;;;2.00;2.00;;;;;;;;6216890;22;44712;-72
2023/09/29 08:03:16;;;;;;;;;4.25;3.25;;;;;;;;6188520;22;45396;-72
2023/09/29 08:05:41;;;;;;;;;10.25;3.50;;;;;;;;6216245;22;44926;-72
2023/09/29 08:08:07;;;;;;;;;4.75;1.25;;;;;;;;6215540;22;45984;-72
2023/09/29 08:10:32;;;;;;;;;7.25;2.75;;;;;;;;6216289;22;45225;-72
2023/09/29 08:12:57;;;;;;;;;2.25;1.25;;;;;;;;6216511;22;45269;-72
2023/09/29 08:15:24;;;;;;;;;3.75;1.00;;;;;;;;6215859;22;45237;-73
2023/09/29 08:17:49;;;;;;;;;1.25;1.00;;;;;;;;6216540;22;45913;-73
2023/09/29 08:20:15;;;;;;;;;1.50;1.50;;;;;;;;6215887;22;45217;-72
2023/09/29 08:22:40;;;;;;;;;1.00;0.00;;;;;;;;6216755;22;45213;-73
2023/09/29 08:25:07;;;;;;;;;1.00;1.00;;;;;;;;6188591;22;45420;-72
2023/09/29 08:27:33;;;;;;;;;2.00;0.00;;;;;;;;6216273;22;45215;-72
2023/09/29 08:29:58;;;;;;;;;3.00;1.00;;;;;;;;6215937;22;45157;-74
2023/09/29 08:32:23;;;;;;;;;18.67;15.67;;;;;;;;6189323;22;45433;-72
2023/09/29 08:34:48;;;;;;;;;5.33;5.33;;;;;;;;6215236;22;45285;-72
2023/09/29 08:37:14;;;;;;;;;2.50;1.25;;;;;;;;6216525;22;45431;-73
2023/09/29 08:39:39;;;;;;;;;1.00;1.00;;;;;;;;6216242;22;45155;-72
2023/09/29 08:42:09;;;;;;;;;0.00;0.00;;;;;;;;6188953;22;45244;-72
2023/09/29 08:44:34;;;;;;;;;0.25;0.00;;;;;;;;6215399;22;45402;-72
2023/09/29 08:47:01;;;;;;;;;0.00;0.00;;;;;;;;6216041;22;46470;-72
2023/09/29 08:49:26;;;;;;;;;0.50;0.00;;;;;;;;6214768;22;44541;-72
2023/09/29 08:51:52;;;;;;;;;0.00;0.00;;;;;;;;6216582;22;45345;-72
2023/09/29 08:54:19;;;;;;;;;0.00;0.00;;;;;;;;6214732;22;45170;-72
2023/09/29 08:56:46;;;;;;;;;0.00;0.00;;;;;;;;6189323;22;45218;-72
2023/09/29 08:59:11;;;;;;;;;1.25;0.00;;;;;;;;6216147;22;45239;-72
2023/09/29 09:01:37;;;;;;;;;0.00;0.00;;;;;;;;6216384;22;45258;-72
2023/09/29 09:04:02;;;;;;;;;0.00;0.00;;;;;;;;6215702;22;45240;-73
2023/09/29 09:06:28;;;;;;;;;0.00;0.00;;;;;;;;6216234;22;45217;-72
2023/09/29 09:08:54;;;;;;;;;0.00;0.00;;;;;;;;6215566;22;45288;-71
2023/09/29 09:11:19;;;;;;;;;1.25;0.00;;;;;;;;6215940;22;45197;-72
2023/09/29 09:13:58;;;;;;;;;1.00;0.00;;;;;;;;6188369;22;45777;-72
2023/09/29 09:16:24;;;;;;;;;0.00;0.00;;;;;;;;6188301;22;46231;-72
2023/09/29 09:18:49;;;;;;;;;0.00;0.00;;;;;;;;6215271;22;45266;-71
2023/09/29 09:21:14;;;;;;;;;0.75;0.00;;;;;;;;6216268;22;45145;-72
2023/09/29 09:23:39;;;;;;;;;1.00;0.00;;;;;;;;6215304;22;45209;-72
2023/09/29 09:26:16;;;;;;;;;0.00;0.00;;;;;;;;6215905;22;45403;-72
2023/09/29 09:28:42;;;;;;;;;0.00;0.00;;;;;;;;6188165;22;45330;-72
2023/09/29 09:31:07;;;;;;;;;0.00;0.00;;;;;;;;6215903;22;45213;-71
2023/09/29 09:33:34;;;;;;;;;0.00;0.00;;;;;;;;6214825;22;45408;-72
2023/09/29 09:36:11;;;;;;;;;1.00;0.00;;;;;;;;6215292;22;46151;-72
2023/09/29 09:38:37;;;;;;;;;1.50;0.00;;;;;;;;6215023;22;45194;-71
2023/09/29 09:41:03;;;;;;;;;0.00;0.00;;;;;;;;6214964;22;45141;-72
2023/09/29 09:43:29;;;;;;;;;0.00;0.00;;;;;;;;6214870;22;45300;-72
2023/09/29 09:46:03;;;;;;;;;0.00;0.00;;;;;;;;6215676;22;45186;-72
2023/09/29 09:48:33;;;;;;;;;1.00;1.00;;;;;;;;6214994;22;45089;-72
2023/09/29 09:51:00;;;;;;;;;0.25;0.25;;;;;;;;6216096;22;45314;-72
2023/09/29 09:53:27;;;;;;;;;3.00;1.00;;;;;;;;6215044;22;45246;-72
2023/09/29 09:55:55;;;;;;;;;3.00;1.00;;;;;;;;6215705;22;45167;-72
2023/09/29 09:58:22;;;;;;;;;1.50;1.00;;;;;;;;6215208;22;45249;-72
2023/09/29 10:00:54;;;;;;;;;0.00;0.00;;;;;;;;6215926;22;45278;-71
2023/09/29 10:03:20;;;;;;;;;0.00;0.00;;;;;;;;6214058;22;45292;-72
2023/09/29 10:05:51;;;;;;;;;1.50;0.75;;;;;;;;6215243;22;46677;-72
2023/09/29 10:08:30;;;;;;;;;1.00;1.00;;;;;;;;6215438;22;45167;-72
2023/09/29 10:11:06;;;;;;;;;3.00;0.50;;;;;;;;6215780;22;45182;-73
2023/09/29 10:13:37;;;;;;;;;0.00;0.00;;;;;;;;6215027;22;45479;-72
2023/09/29 10:16:05;;;;;;;;;1.00;1.00;;;;;;;;6215233;22;45620;-72
2023/09/29 10:18:32;;;;;;;;;1.25;1.25;;;;;;;;6214665;22;45287;-72
2023/09/29 10:21:04;;;;;;;;;2.75;2.00;;;;;;;;6215326;22;45255;-72
2023/09/29 10:23:30;;;;;;;;;0.75;0.00;;;;;;;;6216557;22;45506;-72
2023/09/29 10:25:59;;;;;;;;;2.00;1.00;;;;;;;;6188740;22;47552;-72
2023/09/29 10:28:34;;;;;;;;;3.00;0.75;;;;;;;;6189477;22;45297;-72
2023/09/29 10:31:16;;;;;;;;;1.00;1.00;;;;;;;;6216296;22;45344;-72
2023/09/29 10:33:53;;;;;;;;;3.25;1.75;;;;;;;;6188266;22;45643;-71
2023/09/29 10:36:25;;;;;;;;;1.00;1.00;;;;;;;;6188811;22;47391;-72
2023/09/29 10:38:51;;;;;;;;;1.75;1.75;;;;;;;;6216253;22;45400;-72
2023/09/29 10:41:18;;;;;;;;;3.50;1.00;;;;;;;;6217108;22;45290;-72
2023/09/29 10:43:47;;;;;;;;;0.50;0.00;;;;;;;;6215606;22;45273;-72
2023/09/29 10:46:13;;;;;;;;;1.00;1.00;;;;;;;;6216499;22;45198;-70
2023/09/29 10:48:45;;;;;;;;;2.25;1.00;;;;;;;;6216244;22;45235;-70
2023/09/29 10:51:11;;;;;;;;;1.75;0.50;;;;;;;;6217044;22;45181;-75
2023/09/29 10:53:37;;;;;;;;;1.50;1.50;;;;;;;;6189081;22;45182;-71
2023/09/29 10:56:03;;;;;;;;;0.25;0.25;;;;;;;;6215375;22;46341;-71
2023/09/29 10:58:35;;;;;;;;;0.20;0.20;;;;;;;;6216703;22;45091;-71
2023/09/29 11:01:01;;;;;;;;;1.75;1.25;;;;;;;;6217013;22;45153;-71
2023/09/29 11:03:27;;;;;;;;;0.50;0.50;;;;;;;;6215896;22;45444;-71
2023/09/29 11:05:53;;;;;;;;;3.00;0.25;;;;;;;;6216671;22;46246;-72
2023/09/29 11:08:20;;;;;;;;;0.75;0.75;;;;;;;;6216190;22;45170;-72
2023/09/29 11:10:55;;;;;;;;;0.75;0.75;;;;;;;;6216840;22;45470;-71
2023/09/29 11:13:21;;;;;;;;;1.00;1.00;;;;;;;;6216533;22;45392;-70
2023/09/29 11:15:46;;;;;;;;;1.00;1.00;;;;;;;;6216964;22;46036;-70
2023/09/29 11:18:11;;;;;;;;;2.75;1.00;;;;;;;;6216536;22;45429;-70
2023/09/29 11:20:37;;;;;;;;;0.50;0.50;;;;;;;;6217076;22;45280;-71
2023/09/29 11:23:11;;;;;;;;;1.00;1.00;;;;;;;;6216762;22;45000;-70
2023/09/29 11:25:49;;;;;;;;;2.00;2.00;;;;;;;;6216826;22;45475;-70
2023/09/29 11:28:16;;;;;;;;;1.00;1.00;;;;;;;;6216547;22;45255;-71
2023/09/29 11:30:41;;;;;;;;;2.50;1.25;;;;;;;;6216251;22;45161;-70
2023/09/29 11:33:09;;;;;;;;;1.00;1.00;;;;;;;;6216157;22;45142;-72
2023/09/29 11:35:34;;;;;;;;;2.00;1.75;;;;;;;;6214449;22;45256;-72
2023/09/29 11:38:00;;;;;;;;;2.50;2.50;;;;;;;;6189470;22;45221;-70
2023/09/29 11:40:26;;;;;;;;;2.25;2.00;;;;;;;;6216834;22;45360;-71
2023/09/29 11:42:51;;;;;;;;;4.75;1.75;;;;;;;;6216698;22;45281;-70
2023/09/29 11:45:17;;;;;;;;;4.75;2.00;;;;;;;;6216302;22;45403;-71
2023/09/29 11:47:42;;;;;;;;;0.25;0.25;;;;;;;;6217034;22;45249;-71
2023/09/29 11:50:08;;;;;;;;;1.25;1.00;;;;;;;;6216134;22;45274;-71
2023/09/29 11:52:34;;;;;;;;;2.00;2.00;;;;;;;;6216915;22;45277;-72
2023/09/29 11:55:00;;;;;;;;;1.75;1.00;;;;;;;;6214644;22;45344;-70
2023/09/29 11:57:25;;;;;;;;;4.50;2.00;;;;;;;;6216890;22;45335;-69
2023/09/29 11:59:50;;;;;;;;;1.25;1.00;;;;;;;;6216312;22;45194;-71
2023/09/29 12:02:15;;;;;;;;;2.00;2.00;;;;;;;;6216079;22;45412;-70
2023/09/29 12:04:40;;;;;;;;;4.25;2.25;;;;;;;;6215465;22;46589;-70
2023/09/29 12:07:06;;;;;;;;;3.25;3.00;;;;;;;;6217000;22;45102;-70
2023/09/29 12:09:31;;;;;;;;;5.75;3.00;;;;;;;;6215582;22;45150;-70
2023/09/29 12:12:00;;;;;;;;;2.50;2.50;;;;;;;;6216779;22;45131;-70
2023/09/29 12:14:26;;;;;;;;;3.25;2.00;;;;;;;;6215746;22;46120;-72
2023/09/29 12:16:53;;;;;;;;;1.25;1.25;;;;;;;;6216193;22;45373;-72
2023/09/29 12:19:20;;;;;;;;;2.00;2.00;;;;;;;;6215481;22;45223;-72
2023/09/29 12:21:45;;;;;;;;;5.00;1.25;;;;;;;;6214955;22;45233;-71
2023/09/29 12:24:10;;;;;;;;;4.00;2.00;;;;;;;;6216135;22;45425;-71
2023/09/29 12:26:36;;;;;;;;;2.00;2.00;;;;;;;;6216821;22;45194;-72
2023/09/29 12:29:01;;;;;;;;;4.50;2.50;;;;;;;;6216503;22;45228;-71
2023/09/29 12:31:26;;;;;;;;;0.75;0.75;;;;;;;;6216746;22;44544;-72
2023/09/29 12:33:53;;;;;;;;;3.50;1.25;;;;;;;;6214844;22;46391;-72
2023/09/29 12:36:18;;;;;;;;;1.80;1.80;;;;;;;;6216774;22;45226;-72
2023/09/29 12:38:44;;;;;;;;;2.50;1.50;;;;;;;;6189112;22;45440;-72
2023/09/29 12:41:09;;;;;;;;;5.25;1.00;;;;;;;;6216012;22;45702;-72
2023/09/29 12:43:35;;;;;;;;;4.00;3.00;;;;;;;;6215653;22;46277;-72
2023/09/29 12:46:00;;;;;;;;;1.00;1.00;;;;;;;;6215957;22;45184;-72
2023/09/29 12:48:25;;;;;;;;;4.00;1.00;;;;;;;;6215625;22;45162;-72
2023/09/29 12:50:51;;;;;;;;;1.00;1.00;;;;;;;;6216561;22;45514;-72
2023/09/29 12:53:16;;;;;;;;;2.25;1.00;;;;;;;;6215530;22;46099;-72
2023/09/29 12:55:41;;;;;;;;;3.50;3.00;;;;;;;;6216483;22;45265;-72
2023/09/29 12:58:07;;;;;;;;;2.00;2.00;;;;;;;;6216387;22;45506;-72
2023/09/29 13:00:35;;;;;;;;;8.00;3.00;;;;;;;;6216109;22;45385;-72
2023/09/29 13:03:04;;;;;;;;;3.40;2.60;;;;;;;;6215430;22;45696;-72
2023/09/29 13:05:30;;;;;;;;;5.80;2.60;;;;;;;;6215635;22;45226;-72
2023/09/29 13:07:56;;;;;;;;;3.00;3.00;;;;;;;;6216247;22;45198;-72
2023/09/29 13:10:22;;;;;;;;;5.75;5.25;;;;;;;;6216291;22;45234;-72
2023/09/29 13:12:54;;;;;;;;;3.00;3.00;;;;;;;;6215932;22;46069;-71
2023/09/29 13:15:21;;;;;;;;;2.40;2.40;;;;;;;;6215974;22;45298;-71
2023/09/29 13:17:46;;;;;;;;;7.00;3.75;;;;;;;;6216080;22;45304;-73
2023/09/29 13:20:12;;;;;;;;;4.50;3.50;;;;;;;;6215587;22;45181;-72
2023/09/29 13:22:38;;;;;;;;;3.00;3.00;;;;;;;;6216062;22;45311;-72
2023/09/29 13:25:04;;;;;;;;;4.00;3.00;;;;;;;;6214277;22;45251;-72
2023/09/29 13:27:32;;;;;;;;;4.00;2.50;;;;;;;;6215896;22;45268;-73
2023/09/29 13:29:57;;;;;;;;;3.50;3.50;;;;;;;;6215865;22;45220;-72
2023/09/29 13:32:22;;;;;;;;;3.25;2.00;;;;;;;;6215898;22;45666;-73
2023/09/29 13:34:47;;;;;;;;;3.50;2.00;;;;;;;;6214975;22;45143;-73
2023/09/29 13:37:17;;;;;;;;;1.25;1.25;;;;;;;;6188904;22;45203;-72
2023/09/29 13:39:42;;;;;;;;;2.00;1.00;;;;;;;;6215629;22;45317;-72
2023/09/29 13:42:07;;;;;;;;;2.00;2.00;;;;;;;;6215270;22;45293;-72
2023/09/29 13:44:33;;;;;;;;;0.00;0.00;;;;;;;;6215827;22;45280;-72
2023/09/29 13:46:58;;;;;;;;;2.25;1.25;;;;;;;;6216193;22;45276;-72
2023/09/29 13:49:24;;;;;;;;;3.00;1.25;;;;;;;;6215131;22;45268;-72
2023/09/29 13:51:49;;;;;;;;;3.75;3.75;;;;;;;;6215526;22;45428;-72
2023/09/29 13:54:14;;;;;;;;;2.50;2.50;;;;;;;;6215331;22;45280;-72
2023/09/29 13:56:40;;;;;;;;;2.00;2.00;;;;;;;;6216346;22;45407;-72
2023/09/29 13:59:05;;;;;;;;;2.75;2.75;;;;;;;;6216670;22;45244;-72
2023/09/29 14:01:30;;;;;;;;;3.00;3.00;;;;;;;;6189689;22;46226;-72
2023/09/29 14:03:58;;;;;;;;;2.00;2.00;;;;;;;;6216597;22;45268;-72
2023/09/29 14:06:23;;;;;;;;;2.60;2.60;;;;;;;;6217171;22;45190;-72
2023/09/29 14:08:48;;;;;;;;;3.00;3.00;;;;;;;;6215328;22;45242;-72
2023/09/29 14:11:14;;;;;;;;;3.25;2.00;;;;;;;;6216959;22;46266;-72
2023/09/29 14:13:39;;;;;;;;;4.00;2.25;;;;;;;;6216622;22;45140;-72
2023/09/29 14:16:05;;;;;;;;;4.00;2.25;;;;;;;;6217078;22;45234;-72
2023/09/29 14:18:30;;;;;;;;;4.00;4.00;;;;;;;;6216141;22;45497;-73
2023/09/29 14:20:56;;;;;;;;;3.75;2.50;;;;;;;;6216775;22;45607;-72
2023/09/29 14:23:21;;;;;;;;;3.00;3.00;;;;;;;;6188759;22;45426;-72
2023/09/29 14:25:47;;;;;;;;;3.75;2.00;;;;;;;;6189058;22;45228;-72
2023/09/29 14:28:12;;;;;;;;;4.25;2.50;;;;;;;;6216653;22;45280;-71
2023/09/29 14:30:38;;;;;;;;;3.25;3.00;;;;;;;;6216631;22;45580;-73
2023/09/29 14:33:04;;;;;;;;;5.50;3.75;;;;;;;;6216527;22;45273;-72
2023/09/29 14:35:30;;;;;;;;;1.75;1.75;;;;;;;;6216711;22;45312;-72
2023/09/29 14:37:56;;;;;;;;;1.75;1.75;;;;;;;;6217183;22;45372;-72
2023/09/29 14:40:21;;;;;;;;;3.25;2.25;;;;;;;;6216656;22;45241;-72
2023/09/29 14:42:47;;;;;;;;;4.00;4.00;;;;;;;;6216707;22;45201;-72
2023/09/29 14:45:12;;;;;;;;;2.75;2.75;;;;;;;;6216884;22;45436;-72
2023/09/29 14:47:37;;;;;;;;;3.50;2.00;;;;;;;;6217081;22;45119;-72
2023/09/29 14:50:03;;;;;;;;;4.50;2.00;;;;;;;;6216067;22;45100;-72
2023/09/29 14:52:28;;;;;;;;;3.00;2.00;;;;;;;;6216847;22;45192;-72
2023/09/29 14:54:53;;;;;;;;;2.25;1.00;;;;;;;;6189193;22;45246;-72
2023/09/29 14:57:20;;;;;;;;;3.25;3.25;;;;;;;;6189415;22;46018;-72
2023/09/29 14:59:45;;;;;;;;;2.75;2.75;;;;;;;;6215937;22;45516;-72
2023/09/29 15:02:10;;;;;;;;;2.25;2.25;;;;;;;;6216996;22;45122;-72
2023/09/29 15:04:37;;;;;;;;;5.25;3.25;;;;;;;;6216582;22;45495;-72
2023/09/29 15:07:02;;;;;;;;;4.00;3.50;;;;;;;;6216557;22;45337;-72
2023/09/29 15:09:29;;;;;;;;;3.50;2.25;;;;;;;;6216527;22;46347;-72
2023/09/29 15:11:55;;;;;;;;;3.20;2.00;;;;;;;;6216992;22;45249;-72
2023/09/29 15:14:20;;;;;;;;;4.00;3.00;;;;;;;;6216786;22;45272;-72
2023/09/29 15:16:45;;;;;;;;;4.25;3.00;;;;;;;;6217006;22;45262;-72
2023/09/29 15:19:14;;;;;;;;;4.25;4.25;;;;;;;;6215566;22;45293;-72
2023/09/29 15:21:40;;;;;;;;;3.20;3.00;;;;;;;;6216855;22;45157;-72
2023/09/29 15:24:05;;;;;;;;;3.25;3.25;;;;;;;;6216709;22;45252;-72
2023/09/29 15:26:31;;;;;;;;;6.00;4.00;;;;;;;;6188975;22;45709;-72
2023/09/29 15:28:56;;;;;;;;;3.25;2.00;;;;;;;;6188814;22;47457;-72
2023/09/29 15:31:22;;;;;;;;;3.00;2.50;;;;;;;;6217297;22;45460;-72
2023/09/29 15:33:47;;;;;;;;;4.00;3.00;;;;;;;;6188873;22;45339;-72
2023/09/29 15:36:12;;;;;;;;;7.00;4.25;;;;;;;;6189708;22;46891;-72
2023/09/29 15:38:37;;;;;;;;;3.50;3.50;;;;;;;;6216406;22;45348;-72
2023/09/29 15:41:09;;;;;;;;;7.25;2.50;;;;;;;;6217232;22;45253;-72
2023/09/29 15:43:34;;;;;;;;;5.25;4.75;;;;;;;;6216428;22;45162;-72
2023/09/29 15:46:13;;;;;;;;;7.00;3.50;;;;;;;;6189657;22;46061;-72
2023/09/29 15:48:39;;;;;;;;;5.00;3.00;;;;;;;;6215894;22;46204;-72
2023/09/29 15:51:05;;;;;;;;;5.25;4.00;;;;;;;;6216790;22;45254;-72
2023/09/29 15:53:35;;;;;;;;;6.50;3.00;;;;;;;;6189301;22;45218;-72
2023/09/29 15:56:00;;;;;;;;;4.25;2.75;;;;;;;;6216712;22;45154;-72
2023/09/29 15:58:25;;;;;;;;;5.00;4.00;;;;;;;;6216486;22;45173;-72
2023/09/29 16:00:50;;;;;;;;;7.00;3.25;;;;;;;;6215556;22;45182;-72
2023/09/29 16:03:16;;;;;;;;;3.00;3.00;;;;;;;;6216553;22;45163;-72
2023/09/29 16:05:41;;;;;;;;;6.00;3.25;;;;;;;;6216761;22;45114;-72
2023/09/29 16:08:06;;;;;;;;;6.50;4.00;;;;;;;;6216422;22;45182;-72
2023/09/29 16:10:32;;;;;;;;;4.75;3.50;;;;;;;;6216866;22;45462;-72
2023/09/29 16:12:58;;;;;;;;;7.50;3.00;;;;;;;;6216539;22;45303;-72
2023/09/29 16:15:24;;;;;;;;;4.25;4.25;;;;;;;;6216796;22;45283;-72
2023/09/29 16:17:49;;;;;;;;;7.50;4.25;;;;;;;;6216219;22;45451;-72
2023/09/29 16:20:14;;;;;;;;;5.00;4.75;;;;;;;;6189116;22;45317;-72
2023/09/29 16:22:40;;;;;;;;;3.50;3.00;;;;;;;;6188522;22;45226;-72
2023/09/29 16:25:05;;;;;;;;;6.50;5.50;;;;;;;;6189219;22;45463;-72
2023/09/29 16:27:31;;;;;;;;;6.75;5.00;;;;;;;;6188805;22;46939;-72
2023/09/29 16:29:56;;;;;;;;;5.00;5.00;;;;;;;;6216457;22;45219;-72
2023/09/29 16:32:21;;;;;;;;;8.50;5.50;;;;;;;;6216638;22;45217;-71
2023/09/29 16:34:46;;;;;;;;;6.00;6.00;;;;;;;;6215635;22;45269;-71
2023/09/29 16:37:14;;;;;;;;;9.25;6.25;;;;;;;;6189094;22;47607;-71
2023/09/29 16:39:39;;;;;;;;;7.25;6.25;;;;;;;;6215966;22;45188;-70
2023/09/29 16:42:04;;;;;;;;;5.75;4.50;;;;;;;;6216712;22;45208;-72
2023/09/29 16:44:29;;;;;;;;;8.75;7.00;;;;;;;;6188911;22;46248;-72
2023/09/29 16:46:55;;;;;;;;;10.75;7.25;;;;;;;;6216524;22;45330;-71
2023/09/29 16:49:20;;;;;;;;;7.33;6.00;;;;;;;;6215091;22;45272;-69
2023/09/29 16:51:49;;;;;;;;;7.00;6.00;;;;;;;;6216496;22;45194;-70
2023/09/29 16:54:18;;;;;;;;;6.00;6.00;;;;;;;;6216046;22;45288;-69
2023/09/29 16:56:44;;;;;;;;;6.67;5.00;;;;;;;;6215825;22;46311;-71
2023/09/29 16:59:09;;;;;;;;;5.67;4.33;;;;;;;;6188383;22;45313;-72
2023/09/29 17:01:34;;;;;;;;;8.67;6.33;;;;;;;;6216552;22;45175;-72
2023/09/29 17:03:59;;;;;;;;;6.33;4.67;;;;;;;;6215785;22;45256;-72
2023/09/29 17:06:25;;;;;;;;;5.67;4.00;;;;;;;;6216272;22;45163;-71
2023/09/29 17:08:50;;;;;;;;;5.67;5.67;;;;;;;;6216344;22;45191;-72
2023/09/29 17:11:19;;;;;;;;;5.00;5.00;;;;;;;;6189186;22;45332;-71
2023/09/29 17:13:45;;;;;;;;;5.67;4.00;;;;;;;;6187664;22;45534;-72
2023/09/29 17:16:11;;;;;;;;;5.33;4.00;;;;;;;;6215999;22;45218;-72
2023/09/29 17:18:36;;;;;;;;;4.00;4.00;;;;;;;;6214469;22;45311;-72
2023/09/29 17:21:02;;;;;;;;;9.67;4.00;;;;;;;;6216221;22;45202;-71
2023/09/29 17:23:28;;;;;;;;;3.33;2.00;;;;;;;;6215613;22;45431;-71
2023/09/29 17:25:54;;;;;;;;;5.00;5.00;;;;;;;;6214534;22;46135;-71
2023/09/29 17:28:19;;;;;;;;;5.00;3.00;;;;;;;;6189044;22;45299;-71
2023/09/29 17:30:44;;;;;;;;;4.00;3.33;;;;;;;;6216156;22;45221;-70
2023/09/29 17:33:09;;;;;;;;;2.33;2.33;;;;;;;;6189462;22;45978;-72
2023/09/29 17:35:35;;;;;;;;;2.67;2.67;;;;;;;;6216582;22;46366;-71
2023/09/29 17:38:00;;;;;;;;;5.67;2.67;;;;;;;;6189998;22;45360;-70
2023/09/29 17:40:25;;;;;;;;;4.33;2.33;;;;;;;;6217170;22;45169;-70
2023/09/29 17:42:51;;;;;;;;;4.00;2.67;;;;;;;;6217159;22;45201;-71
2023/09/29 17:45:16;;;;;;;;;3.67;2.33;;;;;;;;6189871;22;46650;-72
2023/09/29 17:47:41;;;;;;;;;4.67;4.00;;;;;;;;6217334;22;45181;-72
2023/09/29 17:50:07;;;;;;;;;3.00;3.00;;;;;;;;6217321;22;45434;-70
2023/09/29 17:52:32;;;;;;;;;4.33;3.00;;;;;;;;6217285;22;45245;-71
2023/09/29 17:54:59;;;;;;;;;4.67;4.67;;;;;;;;6217008;22;45262;-70
2023/09/29 17:57:24;;;;;;;;;5.33;3.67;;;;;;;;6217648;22;45248;-69
2023/09/29 17:59:50;;;;;;;;;3.00;2.00;;;;;;;;6217145;22;45280;-70
2023/09/29 18:02:15;;;;;;;;;6.33;5.00;;;;;;;;6216792;22;45238;-70
2023/09/29 18:04:40;;;;;;;;;5.33;3.67;;;;;;;;6188996;22;45292;-70
2023/09/29 18:07:06;;;;;;;;;3.00;2.00;;;;;;;;6217575;22;45282;-72
2023/09/29 18:09:31;;;;;;;;;7.00;4.67;;;;;;;;6216506;22;45280;-72
2023/09/29 18:11:57;;;;;;;;;5.00;4.00;;;;;;;;6190082;22;45667;-72
2023/09/29 18:14:22;;;;;;;;;7.00;5.67;;;;;;;;6217101;22;45429;-71
2023/09/29 18:16:47;;;;;;;;;8.33;3.67;;;;;;;;6217572;22;45252;-72
2023/09/29 18:19:13;;;;;;;;;8.00;6.67;;;;;;;;6217020;22;45221;-72
2023/09/29 18:21:38;;;;;;;;;10.33;5.33;;;;;;;;6217352;22;45163;-72
2023/09/29 18:24:05;;;;;;;;;6.00;5.33;;;;;;;;6217003;22;45315;-69
2023/09/29 18:26:30;;;;;;;;;7.67;5.67;;;;;;;;6217186;22;45177;-72
2023/09/29 18:28:56;;;;;;;;;9.00;5.33;;;;;;;;6217088;22;45074;-72
2023/09/29 18:31:21;;;;;;;;;4.67;2.67;;;;;;;;6217140;22;45126;-70
2023/09/29 18:33:46;;;;;;;;;3.33;3.33;;;;;;;;6215594;22;45197;-71
2023/09/29 18:36:12;;;;;;;;;4.33;4.33;;;;;;;;6215045;22;45308;-71
2023/09/29 18:38:37;;;;;;;;;5.00;4.00;;;;;;;;6217382;22;45236;-70
2023/09/29 18:41:02;;;;;;;;;4.67;3.00;;;;;;;;6216520;22;45371;-70
2023/09/29 18:43:28;;;;;;;;;8.67;6.00;;;;;;;;6215950;22;45210;-70
2023/09/29 18:46:00;;;;;;;;;9.00;7.33;;;;;;;;6216918;22;45280;-71
2023/09/29 18:48:25;;;;;;;;;6.33;6.00;;;;;;;;6189519;22;45171;-71
2023/09/29 18:50:50;;;;;;;;;9.00;7.33;;;;;;;;6216830;22;45408;-71
2023/09/29 18:53:15;;;;;;;;;5.67;5.00;;;;;;;;6216529;22;45126;-70
2023/09/29 18:55:41;;;;;;;;;5.00;4.33;;;;;;;;6216932;22;45293;-71
2023/09/29 18:58:06;;;;;;;;;4.33;4.33;;;;;;;;6216600;22;45155;-71
2023/09/29 19:00:34;;;;;;;;;7.33;4.00;;;;;;;;6188766;22;45325;-70
2023/09/29 19:02:59;;;;;;;;;10.00;5.00;;;;;;;;6216559;22;45605;-71
2023/09/29 19:05:25;;;;;;;;;3.67;3.00;;;;;;;;6216580;22;45338;-70
2023/09/29 19:07:50;;;;;;;;;1.33;1.33;;;;;;;;6217327;22;45232;-71
2023/09/29 19:10:15;;;;;;;;;5.33;5.33;;;;;;;;6216064;22;45396;-73
2023/09/29 19:12:41;;;;;;;;;5.67;5.00;;;;;;;;6216909;22;45250;-71
2023/09/29 19:15:06;;;;;;;;;9.00;4.33;;;;;;;;6216962;22;45337;-71
2023/09/29 19:17:31;;;;;;;;;8.33;4.67;;;;;;;;6216816;22;45260;-71
2023/09/29 19:19:57;;;;;;;;;8.67;6.00;;;;;;;;6216382;22;45834;-71
2023/09/29 19:22:23;;;;;;;;;6.00;5.00;;;;;;;;6216575;22;45995;-71
2023/09/29 19:24:48;;;;;;;;;6.33;5.33;;;;;;;;6216529;22;45225;-71
2023/09/29 19:27:13;;;;;;;;;7.00;5.33;;;;;;;;6216960;22;45416;-71
2023/09/29 19:29:39;;;;;;;;;7.33;7.33;;;;;;;;6216490;22;45522;-72
2023/09/29 19:32:04;;;;;;;;;9.33;7.00;;;;;;;;6215906;22;45761;-70
2023/09/29 19:34:29;;;;;;;;;9.33;6.00;;;;;;;;6215592;22;45232;-71
2023/09/29 19:36:54;;;;;;;;;8.00;7.00;;;;;;;;6189039;22;45267;-71
2023/09/29 19:39:20;;;;;;;;;10.33;7.67;;;;;;;;6215880;22;45752;-71
2023/09/29 19:41:45;;;;;;;;;13.67;9.00;;;;;;;;6216577;22;45252;-72
2023/09/29 19:44:11;;;;;;;;;10.67;9.00;;;;;;;;6216148;22;45371;-70
2023/09/29 19:46:37;;;;;;;;;9.33;6.00;;;;;;;;6189738;22;45426;-71
2023/09/29 19:49:03;;;;;;;;;8.67;7.00;;;;;;;;6215865;22;45294;-71
2023/09/29 19:51:28;;;;;;;;;7.33;6.67;;;;;;;;6216979;22;45986;-71
2023/09/29 19:53:54;;;;;;;;;7.67;7.67;;;;;;;;6188627;22;46007;-71
2023/09/29 19:56:20;;;;;;;;;9.67;8.00;;;;;;;;6215973;22;45249;-71
2023/09/29 19:58:45;;;;;;;;;9.67;5.67;;;;;;;;6216360;22;45170;-71
2023/09/29 20:01:11;;;;;;;;;9.00;7.00;;;;;;;;6216831;22;45246;-72
2023/09/29 20:03:37;;;;;;;;;7.33;6.33;;;;;;;;6214997;22;45303;-72
2023/09/29 20:06:02;;;;;;;;;8.00;6.00;;;;;;;;6217076;22;45173;-71
2023/09/29 20:08:29;;;;;;;;;8.00;6.00;;;;;;;;6216316;22;45142;-71
2023/09/29 20:10:54;;;;;;;;;6.00;6.00;;;;;;;;6214840;22;46080;-71
2023/09/29 20:13:20;;;;;;;;;7.33;7.00;;;;;;;;6216329;22;45148;-71
2023/09/29 20:15:46;;;;;;;;;7.67;7.00;;;;;;;;6216626;22;45213;-72
2023/09/29 20:18:11;;;;;;;;;7.00;5.33;;;;;;;;6215250;22;45143;-71
2023/09/29 20:20:37;;;;;;;;;7.67;6.33;;;;;;;;6216300;22;45216;-71
2023/09/29 20:23:02;;;;;;;;;6.67;5.33;;;;;;;;6189028;22;45331;-71
2023/09/29 20:25:28;;;;;;;;;4.33;4.33;;;;;;;;6216474;22;45465;-71
2023/09/29 20:27:53;;;;;;;;;8.33;6.00;;;;;;;;6216621;22;45323;-71
2023/09/29 20:30:19;;;;;;;;;8.33;6.67;;;;;;;;6216010;22;45376;-71
2023/09/29 20:32:44;;;;;;;;;8.33;5.67;;;;;;;;6215978;22;45288;-71
2023/09/29 20:35:10;;;;;;;;;5.33;4.67;;;;;;;;6183617;23;45214;-71
2023/09/29 20:37:35;;;;;;;;;5.33;5.00;;;;;;;;6184365;23;45257;-71
2023/09/29 20:40:00;;;;;;;;;5.00;4.00;;;;;;;;6185890;23;45263;-71
2023/09/29 20:42:26;;;;;;;;;4.00;4.00;;;;;;;;6184176;23;45236;-71
2023/09/29 20:44:51;;;;;;;;;4.67;3.67;;;;;;;;6186198;22;45288;-71
2023/09/29 20:47:16;;;;;;;;;9.00;7.67;;;;;;;;6186142;22;45415;-71
2023/09/29 20:49:42;;;;;;;;;8.33;6.00;;;;;;;;6185590;23;45236;-71
2023/09/29 20:52:08;;;;;;;;;5.33;5.00;;;;;;;;6186051;23;45252;-71
2023/09/29 20:54:33;;;;;;;;;8.33;7.00;;;;;;;;6185639;22;45241;-71
2023/09/29 20:56:58;;;;;;;;;7.33;7.00;;;;;;;;6183110;23;45660;-71
2023/09/29 20:59:23;;;;;;;;;10.33;6.67;;;;;;;;6185522;23;46591;-71
2023/09/29 21:01:49;;;;;;;;;5.33;5.00;;;;;;;;6185854;23;45181;-71
2023/09/29 21:04:14;;;;;;;;;9.00;5.33;;;;;;;;6185564;23;45158;-71
2023/09/29 21:06:39;;;;;;;;;11.00;7.00;;;;;;;;6185251;23;45304;-71
2023/09/29 21:09:06;;;;;;;;;10.00;8.00;;;;;;;;6209010;22;48195;-71